createdAt,value
2022-09-23T00:02:07.292Z,11.90
2022-09-23T00:04:34.099Z,11.90
2022-09-23T00:07:01.014Z,11.90
2022-09-23T00:09:27.791Z,11.90
2022-09-23T00:11:55.508Z,11.90
2022-09-23T00:14:22.331Z,12.00
2022-09-23T00:16:49.109Z,12.00
2022-09-23T00:19:15.874Z,12.00
2022-09-23T00:21:42.672Z,12.00
2022-09-23T00:24:09.371Z,12.00
2022-09-23T00:26:36.319Z,12.00
2022-09-23T00:29:03.036Z,12.00
2022-09-23T00:31:30.968Z,12.00
2022-09-23T00:33:59.111Z,12.00
2022-09-23T00:36:26.304Z,12.00
2022-09-23T00:38:53.267Z,12.00
2022-09-23T00:41:20.116Z,12.00
2022-09-23T00:43:48.719Z,12.00
2022-09-23T00:46:17.688Z,11.90
2022-09-23T00:48:44.797Z,11.90
2022-09-23T00:51:14.028Z,12.00
2022-09-23T00:53:41.298Z,11.90
2022-09-23T00:56:09.549Z,11.80
2022-09-23T00:58:37.287Z,11.80
2022-09-23T01:01:04.861Z,11.80
2022-09-23T01:03:31.797Z,11.80
2022-09-23T01:05:58.939Z,11.80
2022-09-23T01:08:26.787Z,11.80
2022-09-23T01:11:03.375Z,11.70
2022-09-23T01:13:49.370Z,11.70
2022-09-23T01:16:36.833Z,11.70
2022-09-23T01:19:15.224Z,11.70
2022-09-23T01:21:53.029Z,11.70
2022-09-23T01:24:25.808Z,11.60
2022-09-23T01:26:58.719Z,11.60
2022-09-23T01:29:40.728Z,11.60
2022-09-23T01:32:13.539Z,11.60
2022-09-23T01:34:47.031Z,11.60
2022-09-23T01:37:20.928Z,11.60
2022-09-23T01:40:07.174Z,11.50
2022-09-23T01:42:37.186Z,11.50
2022-09-23T01:45:10.922Z,11.40
2022-09-23T01:47:41.244Z,11.40
2022-09-23T01:50:29.736Z,11.40
2022-09-23T01:52:59.118Z,11.30
2022-09-23T01:55:28.259Z,11.30
2022-09-23T01:58:12.146Z,11.30
2022-09-23T02:00:41.460Z,11.60
2022-09-23T02:03:13.547Z,11.30
2022-09-23T02:05:44.421Z,11.30
2022-09-23T02:08:13.962Z,11.30
2022-09-23T02:10:52.851Z,11.30
2022-09-23T02:16:22.577Z,11.20
2022-09-23T02:18:55.680Z,11.10
2022-09-23T02:21:25.376Z,11.10
2022-09-23T02:23:54.889Z,11.40
2022-09-23T02:26:34.736Z,11.10
2022-09-23T02:29:01.741Z,11.10
2022-09-23T02:31:34.602Z,11.10
2022-09-23T02:34:21.982Z,11.00
2022-09-23T02:36:53.227Z,11.00
2022-09-23T02:39:22.842Z,11.00
2022-09-23T02:41:59.410Z,11.00
2022-09-23T02:44:27.188Z,10.90
2022-09-23T02:46:54.745Z,10.90
2022-09-23T02:49:31.497Z,10.90
2022-09-23T02:52:00.412Z,10.80
2022-09-23T02:54:28.287Z,10.80
2022-09-23T02:56:55.370Z,10.80
2022-09-23T02:59:23.041Z,10.80
2022-09-23T03:02:08.728Z,10.80
2022-09-23T03:04:42.551Z,10.80
2022-09-23T03:07:14.232Z,10.70
2022-09-23T03:09:44.097Z,10.70
2022-09-23T03:12:11.110Z,10.60
2022-09-23T03:14:37.888Z,10.60
2022-09-23T03:17:08.640Z,10.60
2022-09-23T03:19:42.516Z,10.60
2022-09-23T03:22:15.209Z,10.70
2022-09-23T03:24:44.932Z,10.30
2022-09-23T03:27:17.860Z,10.60
2022-09-23T03:29:47.424Z,10.60
2022-09-23T03:32:18.389Z,10.60
2022-09-23T03:34:48.341Z,10.50
2022-09-23T03:37:23.608Z,10.50
2022-09-23T03:40:10.954Z,10.50
2022-09-23T03:42:38.799Z,10.50
2022-09-23T03:45:09.289Z,10.40
2022-09-23T03:47:36.260Z,10.40
2022-09-23T03:50:03.160Z,10.40
2022-09-23T03:52:30.087Z,10.40
2022-09-23T03:54:56.978Z,10.30
2022-09-23T03:57:24.006Z,10.30
2022-09-23T03:59:51.008Z,10.30
2022-09-23T04:02:18.843Z,10.20
2022-09-23T04:04:45.981Z,10.20
2022-09-23T04:07:12.928Z,10.20
2022-09-23T04:09:40.180Z,10.20
2022-09-23T04:12:07.284Z,10.20
2022-09-23T04:14:34.044Z,10.20
2022-09-23T04:17:01.134Z,10.20
2022-09-23T04:19:27.867Z,10.20
2022-09-23T04:21:54.725Z,10.10
2022-09-23T04:24:22.162Z,10.10
2022-09-23T04:26:53.351Z,10.10
2022-09-23T04:29:20.667Z,10.10
2022-09-23T04:31:47.665Z,10.10
2022-09-23T04:34:16.048Z,10.00
2022-09-23T04:36:43.704Z,10.00
2022-09-23T04:39:10.871Z,10.10
2022-09-23T04:41:37.786Z,10.00
2022-09-23T04:44:05.232Z,10.00
2022-09-23T04:46:33.041Z,10.00
2022-09-23T04:49:00.731Z,9.90
2022-09-23T04:51:27.557Z,9.90
2022-09-23T04:53:55.119Z,10.00
2022-09-23T04:56:26.429Z,10.00
2022-09-23T04:58:53.189Z,9.90
2022-09-23T05:01:24.718Z,9.90
2022-09-23T05:03:52.836Z,9.90
2022-09-23T05:06:20.422Z,9.80
2022-09-23T05:08:48.388Z,9.80
2022-09-23T05:11:15.269Z,9.80
2022-09-23T05:13:42.025Z,9.80
2022-09-23T05:16:10.929Z,9.80
2022-09-23T05:18:42.732Z,9.80
2022-09-23T05:21:10.557Z,9.80
2022-09-23T05:23:37.779Z,9.80
2022-09-23T05:26:05.896Z,9.90
2022-09-23T05:28:33.268Z,9.90
2022-09-23T05:31:07.582Z,9.90
2022-09-23T05:33:35.219Z,10.00
2022-09-23T05:36:02.543Z,10.00
2022-09-23T05:38:29.619Z,10.00
2022-09-23T05:41:00.215Z,10.00
2022-09-23T05:43:27.127Z,10.00
2022-09-23T05:46:07.947Z,10.10
2022-09-23T05:48:35.601Z,9.70
2022-09-23T05:51:03.133Z,10.10
2022-09-23T05:53:30.628Z,10.10
2022-09-23T05:55:57.713Z,10.10
2022-09-23T05:58:25.180Z,10.20
2022-09-23T06:00:52.019Z,10.20
2022-09-23T06:03:20.273Z,10.20
2022-09-23T06:05:48.371Z,10.20
2022-09-23T06:08:15.229Z,10.20
2022-09-23T06:10:43.089Z,10.20
2022-09-23T06:13:10.268Z,10.20
2022-09-23T06:15:37.527Z,10.30
2022-09-23T06:18:04.735Z,10.20
2022-09-23T06:20:31.789Z,10.20
2022-09-23T06:23:08.814Z,10.30
2022-09-23T06:25:38.416Z,10.40
2022-09-23T06:28:06.929Z,10.40
2022-09-23T06:30:34.783Z,10.50
2022-09-23T06:33:01.929Z,10.40
2022-09-23T06:35:28.762Z,10.40
2022-09-23T06:37:55.502Z,10.40
2022-09-23T06:40:22.572Z,10.60
2022-09-23T06:42:56.559Z,10.60
2022-09-23T06:45:23.468Z,10.70
2022-09-23T06:47:56.177Z,10.80
2022-09-23T06:50:24.485Z,10.80
2022-09-23T06:52:51.928Z,10.80
2022-09-23T06:55:18.692Z,10.90
2022-09-23T06:57:45.421Z,11.00
2022-09-23T07:00:13.222Z,11.00
2022-09-23T07:02:43.159Z,11.00
2022-09-23T07:05:10.005Z,11.00
2022-09-23T07:07:37.516Z,11.10
2022-09-23T07:10:05.855Z,11.00
2022-09-23T07:12:33.011Z,11.10
2022-09-23T07:14:59.759Z,11.10
2022-09-23T07:17:26.515Z,11.20
2022-09-23T07:19:54.969Z,11.20
2022-09-23T07:22:22.435Z,11.20
2022-09-23T07:24:49.247Z,11.30
2022-09-23T07:27:16.685Z,11.30
2022-09-23T07:29:48.371Z,11.30
2022-09-23T07:32:15.769Z,11.20
2022-09-23T07:34:43.308Z,11.40
2022-09-23T07:37:10.700Z,11.40
2022-09-23T07:39:37.501Z,11.40
2022-09-23T07:42:05.221Z,11.50
2022-09-23T07:44:32.209Z,11.50
2022-09-23T07:46:59.513Z,11.60
2022-09-23T07:49:26.917Z,11.70
2022-09-23T07:51:54.040Z,11.60
2022-09-23T07:54:21.526Z,11.70
2022-09-23T07:56:48.343Z,11.70
2022-09-23T07:59:18.285Z,11.70
2022-09-23T08:01:47.850Z,11.80
2022-09-23T08:04:17.708Z,11.80
2022-09-23T08:06:48.986Z,11.80
2022-09-23T08:09:16.564Z,11.80
2022-09-23T08:11:43.350Z,11.90
2022-09-23T08:14:13.668Z,12.00
2022-09-23T08:16:41.146Z,12.00
2022-09-23T08:19:08.237Z,12.10
2022-09-23T08:21:35.304Z,12.10
2022-09-23T08:24:02.219Z,12.20
2022-09-23T08:26:29.201Z,11.90
2022-09-23T08:28:56.546Z,12.30
2022-09-23T08:31:23.705Z,12.40
2022-09-23T08:33:54.672Z,12.40
2022-09-23T08:36:21.496Z,12.50
2022-09-23T08:38:49.017Z,12.60
2022-09-23T08:41:36.178Z,12.60
2022-09-23T08:44:04.604Z,12.70
2022-09-23T08:46:35.095Z,12.80
2022-09-23T08:49:02.283Z,12.80
2022-09-23T08:51:32.193Z,12.80
2022-09-23T08:53:59.704Z,12.90
2022-09-23T08:56:27.738Z,12.90
2022-09-23T08:59:17.772Z,13.00
2022-09-23T09:01:46.258Z,13.10
2022-09-23T09:04:18.344Z,13.20
2022-09-23T09:07:24.905Z,13.30
2022-09-23T09:10:14.192Z,13.40
2022-09-23T09:12:41.013Z,13.50
2022-09-23T09:15:13.122Z,13.60
2022-09-23T09:17:39.848Z,13.60
2022-09-23T09:20:18.911Z,13.70
2022-09-23T09:22:48.751Z,13.80
2022-09-23T09:25:22.433Z,13.80
2022-09-23T09:27:49.291Z,13.90
2022-09-23T09:30:16.758Z,14.00
2022-09-23T09:33:03.395Z,14.00
2022-09-23T09:35:33.292Z,14.00
2022-09-23T09:38:01.824Z,14.20
2022-09-23T09:40:32.569Z,14.20
2022-09-23T09:42:59.373Z,14.30
2022-09-23T09:45:30.087Z,14.40
2022-09-23T09:47:56.894Z,14.50
2022-09-23T09:50:43.859Z,14.60
2022-09-23T09:53:14.923Z,14.70
2022-09-23T09:55:41.772Z,14.80
2022-09-23T09:58:13.349Z,15.00
2022-09-23T10:00:43.091Z,15.00
2022-09-23T10:03:13.256Z,15.20
2022-09-23T10:05:45.860Z,15.20
2022-09-23T10:08:19.202Z,15.30
2022-09-23T10:10:56.179Z,15.40
2022-09-23T10:13:27.241Z,15.40
2022-09-23T10:15:54.918Z,15.50
2022-09-23T10:18:28.917Z,15.60
2022-09-23T10:21:16.008Z,15.70
2022-09-23T10:23:44.774Z,15.80
2022-09-23T10:26:12.395Z,15.80
2022-09-23T10:28:50.622Z,15.90
2022-09-23T10:31:25.639Z,16.00
2022-09-23T10:33:59.647Z,16.00
2022-09-23T10:36:27.713Z,16.10
2022-09-23T10:39:17.048Z,16.20
2022-09-23T10:42:10.640Z,16.30
2022-09-23T10:45:05.884Z,16.30
2022-09-23T10:47:39.336Z,16.50
2022-09-23T10:50:11.913Z,16.60
2022-09-23T10:52:39.642Z,17.00
2022-09-23T10:55:28.352Z,16.90
2022-09-23T10:58:14.804Z,17.00
2022-09-23T11:00:42.368Z,17.20
2022-09-23T11:03:22.134Z,17.20
2022-09-23T11:05:56.234Z,17.30
2022-09-23T11:08:42.865Z,17.40
2022-09-23T11:11:27.855Z,17.50
2022-09-23T11:13:58.871Z,17.50
2022-09-23T11:16:29.696Z,17.70
2022-09-23T11:19:04.847Z,17.70
2022-09-23T11:21:38.785Z,17.90
2022-09-23T11:24:28.391Z,18.00
2022-09-23T11:27:14.508Z,18.10
2022-09-23T11:29:51.064Z,18.20
2022-09-23T11:32:42.221Z,18.30
2022-09-23T11:35:15.400Z,18.40
2022-09-23T11:37:45.129Z,18.50
2022-09-23T11:40:22.248Z,18.60
2022-09-23T11:43:11.440Z,18.80
2022-09-23T11:45:59.037Z,18.90
2022-09-23T11:48:33.032Z,18.90
2022-09-23T11:51:05.703Z,19.00
2022-09-23T11:53:55.832Z,19.20
2022-09-23T11:56:50.246Z,19.30
2022-09-23T11:59:40.126Z,19.40
2022-09-23T12:02:20.167Z,19.50
2022-09-23T12:05:03.417Z,19.50
2022-09-23T12:07:57.530Z,19.70
2022-09-23T12:10:31.059Z,19.70
2022-09-23T12:13:11.802Z,19.80
2022-09-23T12:15:45.486Z,20.00
2022-09-23T12:18:27.745Z,20.00
2022-09-23T12:21:01.636Z,20.20
2022-09-23T12:23:42.669Z,20.30
2022-09-23T12:26:21.419Z,20.50
2022-09-23T12:28:50.440Z,20.60
2022-09-23T12:31:22.546Z,20.70
2022-09-23T12:33:51.480Z,20.70
2022-09-23T12:36:26.859Z,20.80
2022-09-23T12:39:19.170Z,20.90
2022-09-23T12:41:48.743Z,21.00
2022-09-23T12:44:29.469Z,21.10
2022-09-23T12:47:15.141Z,21.20
2022-09-23T12:49:42.780Z,21.40
2022-09-23T12:52:16.169Z,21.50
2022-09-23T12:54:44.504Z,21.50
2022-09-23T12:57:13.047Z,21.70
2022-09-23T12:59:55.112Z,21.70
2022-09-23T13:03:19.200Z,21.80
2022-09-23T13:06:14.369Z,21.90
2022-09-23T13:08:42.797Z,22.10
2022-09-23T13:11:23.758Z,22.20
2022-09-23T13:13:51.131Z,22.30
2022-09-23T13:16:26.543Z,22.40
2022-09-23T13:18:54.493Z,22.70
2022-09-23T13:21:40.350Z,22.50
2022-09-23T13:24:13.397Z,22.80
2022-09-23T13:26:44.413Z,22.70
2022-09-23T13:29:16.469Z,22.80
2022-09-23T13:31:43.910Z,22.90
2022-09-23T13:34:13.256Z,22.90
2022-09-23T13:36:47.763Z,23.00
2022-09-23T13:39:24.924Z,23.10
2022-09-23T13:42:02.973Z,23.20
2022-09-23T13:44:30.128Z,23.30
2022-09-23T13:46:58.511Z,23.40
2022-09-23T13:49:30.433Z,23.50
2022-09-23T13:51:57.791Z,23.50
2022-09-23T13:54:38.037Z,23.60
2022-09-23T13:57:05.015Z,23.60
2022-09-23T13:59:37.375Z,23.80
2022-09-23T14:02:27.516Z,24.20
2022-09-23T14:05:32.647Z,24.00
2022-09-23T14:08:31.956Z,24.20
2022-09-23T14:11:06.306Z,24.30
2022-09-23T14:13:50.894Z,24.30
2022-09-23T14:16:19.774Z,24.40
2022-09-23T14:18:48.472Z,24.60
2022-09-23T14:21:47.820Z,24.60
2022-09-23T14:24:14.645Z,24.70
2022-09-23T14:26:46.779Z,24.80
2022-09-23T14:29:15.460Z,24.80
2022-09-23T14:31:44.836Z,24.80
2022-09-23T14:34:41.228Z,24.90
2022-09-23T14:37:42.179Z,24.90
2022-09-23T14:40:12.227Z,25.00
2022-09-23T14:42:41.241Z,25.00
2022-09-23T14:45:12.818Z,25.10
2022-09-23T14:47:46.192Z,25.10
2022-09-23T14:50:42.524Z,25.10
2022-09-23T14:53:39.893Z,25.10
2022-09-23T14:56:06.747Z,25.10
2022-09-23T14:58:51.936Z,25.10
2022-09-23T15:01:27.996Z,25.30
2022-09-23T15:03:55.853Z,25.30
2022-09-23T15:06:23.072Z,25.30
2022-09-23T15:08:51.263Z,25.30
2022-09-23T15:11:18.363Z,25.30
2022-09-23T15:13:47.680Z,25.30
2022-09-23T15:16:15.294Z,25.30
2022-09-23T15:18:44.193Z,25.30
2022-09-23T15:21:10.939Z,25.20
2022-09-23T15:23:40.968Z,25.10
2022-09-23T15:26:11.711Z,25.00
2022-09-23T15:28:38.593Z,24.90
2022-09-23T15:31:06.278Z,24.80
2022-09-23T15:33:34.326Z,24.70
2022-09-23T15:36:02.067Z,24.60
2022-09-23T15:38:29.123Z,24.50
2022-09-23T15:40:55.952Z,24.50
2022-09-23T15:43:24.585Z,24.40
2022-09-23T15:45:56.380Z,24.40
2022-09-23T15:48:25.052Z,24.30
2022-09-23T15:50:52.288Z,24.10
2022-09-23T15:53:21.832Z,24.00
2022-09-23T15:55:51.615Z,23.80
2022-09-23T15:58:18.924Z,23.80
2022-09-23T16:00:57.526Z,23.80
2022-09-23T16:03:30.794Z,23.80
2022-09-23T16:06:00.639Z,23.80
2022-09-23T16:08:28.042Z,23.80
2022-09-23T16:10:55.077Z,23.80
2022-09-23T16:13:21.876Z,23.80
2022-09-23T16:15:48.940Z,23.80
2022-09-23T16:18:15.885Z,23.70
2022-09-23T16:20:44.578Z,23.60
2022-09-23T16:23:15.249Z,23.40
2022-09-23T16:28:31.034Z,22.90
2022-09-23T16:31:12.490Z,22.70
2022-09-23T16:33:43.617Z,22.40
2022-09-23T16:36:14.218Z,22.10
2022-09-23T16:38:42.220Z,21.50
2022-09-23T16:41:09.044Z,21.70
2022-09-23T16:43:39.386Z,21.60
2022-09-23T16:46:07.228Z,21.40
2022-09-23T16:48:33.978Z,21.20
2022-09-23T16:51:04.829Z,21.10
2022-09-23T16:53:31.640Z,21.00
2022-09-23T16:55:58.388Z,20.90
2022-09-23T16:58:25.216Z,20.70
2022-09-23T17:01:15.386Z,20.60
2022-09-23T17:03:42.372Z,20.50
2022-09-23T17:06:13.050Z,20.40
2022-09-23T17:08:40.840Z,20.30
2022-09-23T17:11:08.501Z,20.20
2022-09-23T17:13:35.750Z,20.20
2022-09-23T17:16:02.792Z,20.10
2022-09-23T17:18:29.905Z,20.00
2022-09-23T17:21:01.102Z,20.00
2022-09-23T17:23:34.521Z,19.90
2022-09-23T17:26:02.060Z,19.90
2022-09-23T17:28:33.278Z,19.80
2022-09-23T17:31:02.711Z,19.70
2022-09-23T17:33:39.429Z,19.70
2022-09-23T17:36:13.707Z,19.60
2022-09-23T17:38:44.997Z,19.50
2022-09-23T17:41:12.498Z,19.40
2022-09-23T17:44:24.567Z,19.40
2022-09-23T17:46:52.148Z,19.30
2022-09-23T17:49:18.981Z,19.30
2022-09-23T17:51:45.793Z,19.20
2022-09-23T17:54:15.495Z,19.10
2022-09-23T17:56:45.393Z,19.10
2022-09-23T17:59:12.730Z,19.00
2022-09-23T18:01:39.665Z,18.90
2022-09-23T18:04:06.512Z,18.90
2022-09-23T18:06:39.208Z,18.90
2022-09-23T18:09:07.224Z,18.80
2022-09-23T18:11:36.695Z,18.70
2022-09-23T18:14:26.525Z,18.70
2022-09-23T18:16:53.746Z,18.60
2022-09-23T18:19:26.937Z,18.50
2022-09-23T18:21:56.001Z,18.50
2022-09-23T18:24:38.702Z,18.50
2022-09-23T18:27:06.598Z,18.40
2022-09-23T18:29:34.029Z,18.40
2022-09-23T18:32:01.216Z,18.40
2022-09-23T18:34:29.551Z,18.00
2022-09-23T18:36:59.054Z,18.30
2022-09-23T18:39:26.008Z,18.30
2022-09-23T18:41:53.198Z,18.30
2022-09-23T18:44:20.189Z,18.20
2022-09-23T18:46:46.931Z,18.20
2022-09-23T18:49:32.462Z,18.20
2022-09-23T18:51:59.288Z,18.10
2022-09-23T18:54:27.593Z,18.10
2022-09-23T18:56:54.963Z,18.10
2022-09-23T18:59:24.807Z,18.10
2022-09-23T19:01:54.883Z,18.00
2022-09-23T19:04:22.327Z,18.00
2022-09-23T19:06:49.903Z,17.90
2022-09-23T19:09:17.605Z,17.90
2022-09-23T19:11:44.516Z,17.90
2022-09-23T19:14:11.783Z,17.90
2022-09-23T19:16:39.637Z,17.80
2022-09-23T19:19:06.548Z,17.80
2022-09-23T19:21:33.476Z,17.80
2022-09-23T19:24:03.444Z,17.80
2022-09-23T19:26:40.395Z,17.80
2022-09-23T19:29:08.623Z,17.70
2022-09-23T19:31:37.147Z,17.70
2022-09-23T19:34:10.240Z,17.70
2022-09-23T19:36:38.108Z,17.60
2022-09-23T19:39:06.048Z,17.70
2022-09-23T19:41:33.501Z,17.60
2022-09-23T19:44:03.095Z,17.60
2022-09-23T19:46:31.043Z,17.60
2022-09-23T19:48:58.403Z,17.60
2022-09-23T19:51:25.320Z,17.50
2022-09-23T19:53:52.160Z,17.40
2022-09-23T19:56:19.233Z,17.50
2022-09-23T19:58:47.266Z,17.40
2022-09-23T20:01:17.284Z,17.40
2022-09-23T20:03:47.619Z,17.40
2022-09-23T20:06:14.807Z,17.40
2022-09-23T20:08:41.617Z,17.40
2022-09-23T20:11:11.076Z,17.40
2022-09-23T20:13:38.648Z,17.40
2022-09-23T20:16:12.229Z,17.30
2022-09-23T20:18:39.028Z,17.30
2022-09-23T20:21:06.671Z,17.30
2022-09-23T20:23:33.790Z,17.30
2022-09-23T20:26:19.975Z,17.30
2022-09-23T20:28:46.896Z,17.20
2022-09-23T20:31:14.392Z,17.20
2022-09-23T20:33:46.128Z,17.20
2022-09-23T20:36:13.420Z,17.30
2022-09-23T20:38:40.528Z,17.20
2022-09-23T20:41:07.358Z,17.20
2022-09-23T20:43:34.578Z,17.20
2022-09-23T20:46:02.213Z,17.10
2022-09-23T20:48:29.449Z,17.10
2022-09-23T20:51:00.200Z,17.10
2022-09-23T20:53:29.036Z,17.00
2022-09-23T20:55:56.946Z,16.60
2022-09-23T20:58:27.381Z,16.90
2022-09-23T21:00:54.499Z,16.80
2022-09-23T21:03:21.396Z,16.80
2022-09-23T21:05:48.224Z,16.80
2022-09-23T21:08:15.862Z,16.70
2022-09-23T21:10:42.637Z,16.70
2022-09-23T21:13:09.366Z,16.70
2022-09-23T21:15:36.166Z,16.70
2022-09-23T21:18:02.871Z,16.60
2022-09-23T21:20:29.656Z,16.60
2022-09-23T21:22:57.145Z,16.50
2022-09-23T21:25:28.673Z,16.50
2022-09-23T21:27:56.033Z,16.50
2022-09-23T21:30:22.993Z,16.50
2022-09-23T21:32:49.838Z,16.50
2022-09-23T21:35:18.736Z,16.40
2022-09-23T21:37:45.920Z,16.30
2022-09-23T21:40:31.644Z,16.40
2022-09-23T21:43:01.599Z,16.30
2022-09-23T21:45:28.965Z,16.20
2022-09-23T21:47:55.658Z,16.20
2022-09-23T21:50:22.401Z,16.20
2022-09-23T21:52:51.752Z,16.10
2022-09-23T21:55:18.992Z,16.10
2022-09-23T21:57:46.157Z,16.10
2022-09-23T22:00:13.148Z,16.00
2022-09-23T22:02:39.949Z,15.90
2022-09-23T22:05:07.306Z,15.90
2022-09-23T22:07:38.114Z,15.50
2022-09-23T22:10:06.027Z,15.80
2022-09-23T22:12:33.413Z,15.70
2022-09-23T22:15:00.224Z,15.70
2022-09-23T22:17:27.903Z,15.60
2022-09-23T22:19:55.029Z,15.60
2022-09-23T22:22:21.713Z,15.60
2022-09-23T22:24:48.668Z,15.60
2022-09-23T22:27:16.726Z,15.50
2022-09-23T22:30:02.503Z,15.50
2022-09-23T22:32:41.256Z,15.40
2022-09-23T22:35:08.964Z,15.40
2022-09-23T22:37:36.227Z,15.40
2022-09-23T22:40:08.388Z,15.30
2022-09-23T22:42:36.442Z,15.30
2022-09-23T22:45:05.706Z,15.20
2022-09-23T22:47:37.089Z,15.40
2022-09-23T22:50:04.974Z,15.30
2022-09-23T22:52:32.146Z,15.30
2022-09-23T22:54:59.164Z,15.30
2022-09-23T22:57:25.887Z,15.30
2022-09-23T22:59:53.063Z,15.30
2022-09-23T23:02:20.838Z,15.20
2022-09-23T23:04:48.026Z,15.20
2022-09-23T23:07:15.916Z,15.20
2022-09-23T23:09:42.660Z,15.20
2022-09-23T23:12:09.352Z,15.20
2022-09-23T23:14:36.317Z,15.20
2022-09-23T23:17:07.243Z,15.20
2022-09-23T23:19:35.041Z,15.20
2022-09-23T23:22:02.053Z,15.20
2022-09-23T23:24:29.023Z,15.10
2022-09-23T23:26:55.723Z,15.10
2022-09-23T23:29:23.440Z,15.10
2022-09-23T23:31:50.284Z,15.00
2022-09-23T23:34:18.681Z,15.00
2022-09-23T23:36:45.967Z,15.00
2022-09-23T23:39:13.598Z,15.00
2022-09-23T23:41:41.579Z,15.00
2022-09-23T23:44:08.600Z,15.00
2022-09-23T23:46:37.270Z,14.90
2022-09-23T23:49:04.771Z,14.90
2022-09-23T23:51:31.497Z,14.90
2022-09-23T23:53:58.800Z,14.90
2022-09-23T23:56:26.229Z,14.80
2022-09-23T23:58:56.827Z,14.80
